Time;durP1;ratioP1;P1;durP2;ratioP2;P2;SDS_P1;SDS_P2;PMS_P1;PMS_P2;Temp;Humidity;BMP_temperature;BMP_pressure;BME280_temperature;BME280_humidity;BME280_pressure;Samples;Min_cycle;Max_cycle;Signal;HPM_P1;HPM_P2
2023/04/13 00:00:53;;;;;;;2.30;1.00;;;4.90;1.00;;;;;;6295315;22;20027;-93
2023/04/13 00:03:44;;;;;;;0.85;0.85;;;5.00;99.90;;;;;;6317656;22;20071;-93
2023/04/13 00:06:33;;;;;;;2.28;1.13;;;5.00;99.90;;;;;;6296617;22;20050;-90
2023/04/13 00:09:20;;;;;;;3.45;1.10;;;5.00;1.00;;;;;;6294369;22;20019;-94
2023/04/13 00:12:09;;;;;;;1.92;1.00;;;5.00;99.90;;;;;;6292292;22;20042;-93
2023/04/13 00:15:00;;;;;;;3.17;1.10;;;5.10;99.90;;;;;;6313319;22;20083;-91
2023/04/13 00:17:49;;;;;;;2.05;1.27;;;5.20;1.00;;;;;;6314906;22;20423;-92
2023/04/13 00:20:37;;;;;;;2.45;1.20;;;5.30;99.90;;;;;;6311910;22;20027;-92
2023/04/13 00:23:25;;;;;;;2.55;1.20;;;5.40;1.00;;;;;;6291549;22;20333;-94
2023/04/13 00:26:13;;;;;;;2.97;1.10;;;5.40;1.00;;;;;;6311248;22;20035;-90
2023/04/13 00:29:00;;;;;;;1.67;1.38;;;5.40;7.30;;;;;;6312342;22;20027;-91
2023/04/13 00:31:51;;;;;;;1.48;1.20;;;5.20;33.00;;;;;;6313363;22;20038;-90
2023/04/13 00:34:38;;;;;;;1.48;1.05;;;5.20;99.90;;;;;;6290618;22;20435;-92
2023/04/13 00:37:28;;;;;;;2.15;1.17;;;5.10;99.90;;;;;;6311402;22;20035;-93
2023/04/13 00:40:15;;;;;;;2.08;1.20;;;5.20;93.50;;;;;;6317642;22;20020;-94
2023/04/13 00:43:29;;;;;;;1.95;1.08;;;5.30;99.90;;;;;;6318908;22;20050;-92
2023/04/13 00:46:45;;;;;;;2.35;1.30;;;5.30;99.90;;;;;;6294758;22;20020;-93
2023/04/13 00:49:34;;;;;;;2.88;1.23;;;5.30;99.90;;;;;;6312922;22;20031;-92
2023/04/13 00:52:24;;;;;;;2.33;1.00;;;5.30;1.00;;;;;;6314747;22;20042;-91
2023/04/13 00:55:19;;;;;;;2.78;1.00;;;5.30;1.00;;;;;;6290040;22;20073;-93
2023/04/13 00:58:07;;;;;;;1.92;1.10;;;5.30;99.90;;;;;;6293136;22;20432;-93
2023/04/13 01:00:57;;;;;;;0.90;0.90;;;5.30;99.90;;;;;;6290416;22;20352;-90
2023/04/13 01:03:52;;;;;;;2.72;1.20;;;5.30;99.90;;;;;;6311144;22;20019;-93
2023/04/13 01:06:44;;;;;;;7.50;1.25;;;5.30;99.90;;;;;;6314050;22;20098;-93
2023/04/13 01:09:44;;;;;;;2.10;1.10;;;5.30;97.80;;;;;;6311381;22;20031;-89
2023/04/13 01:13:13;;;;;;;1.15;1.05;;;5.20;45.00;;;;;;6323277;22;20027;-92
2023/04/13 01:16:13;;;;;;;1.13;1.10;;;5.30;13.90;;;;;;6238775;22;20054;-93
2023/04/13 01:19:04;;;;;;;1.77;1.00;;;5.30;1.00;;;;;;6291892;22;20045;-92
2023/04/13 01:21:53;;;;;;;2.70;1.10;;;5.20;1.00;;;;;;6314963;22;20027;-92
2023/04/13 01:25:16;;;;;;;2.42;1.08;;;5.20;11.30;;;;;;6312378;22;20030;-93
2023/04/13 01:28:08;;;;;;;;;;;5.10;1.00;;;;;;6289065;22;20034;-91
2023/04/13 01:30:59;;;;;;;2.63;1.17;;;5.00;28.00;;;;;;6290372;22;19915;-92
2023/04/13 01:33:47;;;;;;;3.22;1.15;;;5.00;9.50;;;;;;6290461;22;20029;-94
2023/04/13 01:36:38;;;;;;;2.25;1.10;;;5.00;1.00;;;;;;6312477;22;20106;-94
2023/04/13 01:39:30;;;;;;;2.83;0.90;;;5.10;1.00;;;;;;6312782;22;20030;-92
2023/04/13 01:42:24;;;;;;;2.70;1.08;;;5.10;1.00;;;;;;6315017;22;20026;-92
2023/04/13 01:45:23;;;;;;;2.28;1.10;;;5.00;1.00;;;;;;6314005;22;20027;-90
2023/04/13 01:48:47;;;;;;;2.90;1.63;;;5.00;1.00;;;;;;6291114;22;20027;-93
2023/04/13 01:51:40;;;;;;;4.35;1.30;;;5.00;1.00;;;;;;6313255;22;20105;-94
2023/04/13 01:54:28;;;;;;;;;;;4.90;1.00;;;;;;6291618;22;20024;-93
2023/04/13 01:57:29;;;;;;;3.17;1.30;;;4.80;1.00;;;;;;6314731;22;19972;-93
2023/04/13 02:00:19;;;;;;;4.13;1.85;;;4.80;1.00;;;;;;6317704;22;20018;-86
2023/04/13 02:03:37;;;;;;;1.55;1.40;;;4.80;39.10;;;;;;6334960;22;20017;-87
2023/04/13 02:06:25;;;;;;;3.35;1.20;;;4.80;96.20;;;;;;6335822;22;20027;-87
2023/04/13 02:09:20;;;;;;;3.70;1.35;;;4.70;99.90;;;;;;6334464;22;20007;-85
2023/04/13 02:12:09;;;;;;;2.40;1.52;;;4.70;99.90;;;;;;6336685;22;20065;-87
2023/04/13 02:15:00;;;;;;;1.17;1.13;;;4.60;99.90;;;;;;6334188;22;20007;-86
2023/04/13 02:17:49;;;;;;;1.30;1.20;;;4.70;99.90;;;;;;6314483;22;20023;-89
2023/04/13 02:20:42;;;;;;;1.40;1.30;;;4.60;1.00;;;;;;6333152;22;20008;-89
2023/04/13 02:23:33;;;;;;;2.60;1.20;;;4.60;1.00;;;;;;6305646;22;20053;-93
2023/04/13 02:26:36;;;;;;;3.60;1.52;;;4.60;1.00;;;;;;6325634;22;20035;-91
2023/04/13 02:29:33;;;;;;;1.77;1.30;;;4.60;1.00;;;;;;6303835;22;20011;-92
2023/04/13 02:32:23;;;;;;;2.65;1.23;;;4.60;23.90;;;;;;6281146;22;20078;-91
2023/04/13 02:35:22;;;;;;;2.03;1.50;;;4.50;30.90;;;;;;6327969;22;20121;-93
2023/04/13 02:38:26;;;;;;;1.50;1.00;;;4.50;73.50;;;;;;6329094;22;20011;-87
2023/04/13 02:41:28;;;;;;;2.78;1.38;;;4.50;1.00;;;;;;6333487;22;20011;-86
2023/04/13 02:44:20;;;;;;;2.55;1.50;;;4.40;1.00;;;;;;6330878;22;20031;-93
2023/04/13 02:47:29;;;;;;;3.15;1.33;;;4.40;40.50;;;;;;6314608;22;20025;-90
2023/04/13 02:50:17;;;;;;;2.45;1.45;;;4.30;51.50;;;;;;6312806;22;20037;-93
2023/04/13 02:53:06;;;;;;;1.75;1.20;;;4.40;19.80;;;;;;6315876;22;20023;-93
2023/04/13 02:55:59;;;;;;;1.95;1.40;;;4.30;78.60;;;;;;6315126;22;20034;-92
2023/04/13 02:58:48;;;;;;;3.65;1.30;;;4.30;99.90;;;;;;6315514;22;20129;-92
2023/04/13 03:01:36;;;;;;;3.53;1.23;;;4.20;99.90;;;;;;6292248;22;20023;-91
2023/04/13 03:04:26;;;;;;;3.45;1.27;;;4.30;99.90;;;;;;6289383;22;20019;-93
2023/04/13 03:07:17;;;;;;;3.22;1.38;;;4.20;99.90;;;;;;6314705;22;20019;-91
2023/04/13 03:10:05;;;;;;;3.88;1.50;;;4.30;99.90;;;;;;6314958;22;20361;-91
2023/04/13 03:12:52;;;;;;;2.45;1.40;;;4.30;99.90;;;;;;6312411;22;20023;-92
2023/04/13 03:15:40;;;;;;;2.00;1.15;;;4.40;46.60;;;;;;6314030;22;20030;-92
2023/04/13 03:18:28;;;;;;;2.60;1.52;;;4.40;14.00;;;;;;6313428;22;20031;-91
2023/04/13 03:21:23;;;;;;;2.50;1.40;;;4.40;1.00;;;;;;6315626;22;20319;-92
2023/04/13 03:24:11;;;;;;;3.58;1.70;;;4.40;1.00;;;;;;6311213;22;20023;-92
2023/04/13 03:26:58;;;;;;;1.95;1.23;;;4.50;1.00;;;;;;6313782;22;20074;-90
2023/04/13 03:29:47;;;;;;;4.75;1.38;;;4.50;99.90;;;;;;6288315;22;20030;-90
2023/04/13 03:32:35;;;;;;;1.42;1.13;;;4.50;99.90;;;;;;6312607;22;20059;-92
2023/04/13 03:35:23;;;;;;;5.32;1.60;;;4.60;99.90;;;;;;6291451;22;20023;-93
2023/04/13 03:38:13;;;;;;;3.15;1.30;;;4.60;99.90;;;;;;6314715;22;20015;-91
2023/04/13 03:41:04;;;;;;;4.38;1.50;;;4.60;94.10;;;;;;6317396;22;20078;-91
2023/04/13 03:43:52;;;;;;;4.75;1.67;;;4.60;9.00;;;;;;6315245;22;20110;-91
2023/04/13 03:46:42;;;;;;;4.22;1.38;;;4.60;1.00;;;;;;6316889;22;20019;-92
2023/04/13 03:49:33;;;;;;;4.45;1.50;;;4.60;1.00;;;;;;6317105;22;20022;-91
2023/04/13 03:52:21;;;;;;;5.60;1.73;;;4.80;99.90;;;;;;6309299;22;20027;-93
2023/04/13 03:55:08;;;;;;;4.70;1.67;;;4.70;99.90;;;;;;6289644;22;20046;-88
2023/04/13 03:58:00;;;;;;;5.97;1.63;;;4.80;99.90;;;;;;6312647;22;20019;-92
2023/04/13 04:00:49;;;;;;;3.97;2.07;;;4.80;99.90;;;;;;6291592;22;20026;-92
2023/04/13 04:03:46;;;;;;;4.15;1.83;;;4.90;99.90;;;;;;6311375;22;20095;-93
2023/04/13 04:06:34;;;;;;;5.53;1.60;;;4.90;99.90;;;;;;6293224;22;20064;-91
2023/04/13 04:09:23;;;;;;;2.75;1.33;;;4.90;99.90;;;;;;6315112;22;20046;-90
2023/04/13 04:12:17;;;;;;;3.20;1.58;;;4.90;99.90;;;;;;6320289;22;20023;-92
2023/04/13 04:15:09;;;;;;;3.65;1.50;;;5.00;99.90;;;;;;6298871;22;20092;-90
2023/04/13 04:18:00;;;;;;;4.43;1.80;;;4.90;99.90;;;;;;6293847;22;20019;-93
2023/04/13 04:20:50;;;;;;;3.50;1.42;;;4.90;87.60;;;;;;6314972;22;20019;-93
2023/04/13 04:23:39;;;;;;;2.15;1.92;;;4.90;31.80;;;;;;6323959;22;20069;-90
2023/04/13 04:26:28;;;;;;;4.80;1.52;;;5.00;1.00;;;;;;6311335;22;20098;-90
2023/04/13 04:29:20;;;;;;;13.02;1.85;;;5.00;1.00;;;;;;6307510;22;20033;-90
2023/04/13 04:32:11;;;;;;;6.25;1.60;;;4.90;1.00;;;;;;6322142;22;20078;-93
2023/04/13 04:35:09;;;;;;;8.13;1.73;;;4.90;1.00;;;;;;6292530;22;20315;-92
2023/04/13 04:37:57;;;;;;;4.20;1.75;;;4.90;1.00;;;;;;6267539;22;20020;-88
2023/04/13 04:40:44;;;;;;;9.70;2.15;;;4.90;1.00;;;;;;6315406;22;20023;-90
2023/04/13 04:43:34;;;;;;;3.28;1.67;;;4.90;1.00;;;;;;6317631;22;20015;-94
2023/04/13 04:46:28;;;;;;;3.92;1.40;;;4.90;1.00;;;;;;6296599;22;20087;-90
2023/04/13 04:49:17;;;;;;;3.00;1.30;;;4.90;1.00;;;;;;6294013;22;20158;-91
2023/04/13 04:52:11;;;;;;;4.97;1.50;;;4.90;1.00;;;;;;6315633;22;20023;-91
2023/04/13 04:54:58;;;;;;;4.95;1.48;;;4.90;1.00;;;;;;6314477;22;20306;-90
2023/04/13 04:57:46;;;;;;;4.55;1.60;;;4.90;1.00;;;;;;6311356;22;20027;-88
2023/04/13 05:00:35;;;;;;;5.82;1.35;;;4.90;99.90;;;;;;6312233;22;20085;-88
2023/04/13 05:03:22;;;;;;;6.32;2.00;;;4.90;99.90;;;;;;6313901;22;20023;-86
2023/04/13 05:06:10;;;;;;;6.70;1.70;;;4.90;99.90;;;;;;6315618;22;20073;-87
2023/04/13 05:09:03;;;;;;;6.60;1.70;;;4.90;99.90;;;;;;6312918;22;20027;-91
2023/04/13 05:11:51;;;;;;;8.23;2.15;;;5.00;99.90;;;;;;6322737;22;20031;-93
2023/04/13 05:14:38;;;;;;;6.32;1.63;;;5.00;99.90;;;;;;6307804;22;20033;-92
2023/04/13 05:17:26;;;;;;;8.38;2.13;;;5.00;99.90;;;;;;6319446;22;20031;-92
2023/04/13 05:20:13;;;;;;;2.83;1.52;;;5.00;99.90;;;;;;6314305;22;20031;-93
2023/04/13 05:23:01;;;;;;;11.77;1.80;;;5.00;99.90;;;;;;6293688;22;20027;-92
2023/04/13 05:25:50;;;;;;;7.57;2.00;;;5.00;99.90;;;;;;6294802;22;20024;-93
2023/04/13 05:28:38;;;;;;;4.50;1.50;;;4.90;99.90;;;;;;6292731;22;20022;-90
2023/04/13 05:31:28;;;;;;;4.35;1.50;;;4.90;99.90;;;;;;6292604;22;20437;-93
2023/04/13 05:34:18;;;;;;;5.95;1.65;;;4.90;99.90;;;;;;6316896;22;20142;-92
2023/04/13 05:37:05;;;;;;;5.25;1.67;;;4.90;99.90;;;;;;6316274;22;20315;-92
2023/04/13 05:39:52;;;;;;;7.78;1.63;;;5.00;99.90;;;;;;6313859;22;20033;-92
2023/04/13 05:42:41;;;;;;;4.32;1.60;;;5.00;99.90;;;;;;6292553;22;20418;-93
2023/04/13 05:45:30;;;;;;;5.95;1.65;;;5.00;99.90;;;;;;6313002;22;20072;-91
2023/04/13 05:48:35;;;;;;;11.02;1.95;;;5.00;99.90;;;;;;6316554;22;20110;-87
2023/04/13 05:51:24;;;;;;;8.55;1.73;;;5.10;99.90;;;;;;6310004;22;20038;-89
2023/04/13 05:54:17;;;;;;;7.28;2.03;;;5.10;99.90;;;;;;6266808;22;20031;-87
2023/04/13 05:57:19;;;;;;;4.53;1.67;;;5.10;99.90;;;;;;6290219;22;20041;-93
2023/04/13 06:00:17;;;;;;;7.18;1.90;;;5.10;99.90;;;;;;6313347;22;20077;-92
2023/04/13 06:03:45;;;;;;;8.27;1.80;;;5.10;99.90;;;;;;6316625;22;20023;-92
2023/04/13 06:06:56;;;;;;;6.57;1.80;;;5.10;99.90;;;;;;6258508;22;20023;-91
2023/04/13 06:09:59;;;;;;;4.93;1.90;;;5.20;99.90;;;;;;6312773;22;20026;-93
2023/04/13 06:13:48;;;;;;;6.90;1.55;;;5.10;99.90;;;;;;6285212;22;20083;-93
2023/04/13 06:17:02;;;;;;;;;;;;;;;;;;;;;
2023/04/13 06:19:59;;;;;;;5.18;1.90;;;5.00;99.90;;;;;;6248897;23;20350;-92
2023/04/13 06:22:48;;;;;;;5.43;2.03;;;5.10;99.90;;;;;;6250027;23;20366;-90
2023/04/13 06:26:20;;;;;;;6.22;1.90;;;5.20;99.90;;;;;;6142603;23;20030;-93
2023/04/13 06:29:44;;;;;;;10.05;2.33;;;5.30;99.90;;;;;;6159864;23;20030;-91
2023/04/13 06:32:43;;;;;;;10.35;2.38;;;5.40;99.90;;;;;;6139411;23;20100;-92
2023/04/13 06:39:48;;;;;;;4.60;1.75;;;5.40;99.90;;;;;;6159606;23;20039;-90
2023/04/13 06:50:51;;;;;;;5.15;1.80;;;5.70;80.10;;;;;;6329916;22;20030;-90
2023/04/13 06:53:53;;;;;;;5.18;1.70;;;5.90;73.20;;;;;;6309848;22;20053;-89
2023/04/13 06:56:58;;;;;;;3.88;1.50;;;6.10;53.80;;;;;;6319776;22;20023;-94
2023/04/13 06:59:49;;;;;;;5.88;1.75;;;6.00;43.00;;;;;;6313663;22;20034;-94
2023/04/13 07:02:45;;;;;;;4.28;1.45;;;5.80;34.80;;;;;;6292376;22;20034;-92
2023/04/13 07:05:42;;;;;;;6.55;1.73;;;5.90;29.20;;;;;;6315179;22;20019;-91
2023/04/13 07:08:40;;;;;;;3.42;1.70;;;6.00;34.40;;;;;;6295627;22;20102;-93
2023/04/13 07:11:36;;;;;;;9.48;2.00;;;6.10;30.50;;;;;;6295989;22;20046;-93
2023/04/13 07:14:24;;;;;;;5.90;1.35;;;6.20;22.90;;;;;;6292467;22;20027;-91
2023/04/13 07:17:32;;;;;;;12.52;2.00;;;6.20;14.90;;;;;;6312963;22;20434;-89
2023/04/13 07:20:21;;;;;;;4.60;1.77;;;6.30;6.20;;;;;;6287583;22;20050;-92
2023/04/13 07:23:08;;;;;;;5.47;1.88;;;6.30;4.80;;;;;;6312250;22;20050;-91
2023/04/13 07:26:06;;;;;;;6.00;2.00;;;6.40;4.00;;;;;;6289867;22;20027;-93
2023/04/13 07:28:58;;;;;;;8.88;2.83;;;6.50;3.30;;;;;;6310671;22;20426;-91
2023/04/13 07:32:13;;;;;;;7.35;1.88;;;6.40;7.00;;;;;;6289559;22;20027;-91
2023/04/13 07:35:30;;;;;;;8.18;2.42;;;6.40;16.10;;;;;;6291262;22;20038;-92
2023/04/13 07:38:51;;;;;;;7.45;1.80;;;6.40;27.10;;;;;;6291641;22;20114;-90
2023/04/13 07:42:01;;;;;;;8.25;2.10;;;6.30;9.50;;;;;;6310199;22;20023;-92
2023/04/13 07:45:09;;;;;;;6.93;2.67;;;6.20;4.20;;;;;;6289643;22;20023;-93
2023/04/13 07:48:25;;;;;;;8.73;2.92;;;6.20;6.40;;;;;;6312630;22;20027;-93
2023/04/13 07:51:20;;;;;;;9.75;2.20;;;6.30;11.90;;;;;;6289556;22;20034;-91
2023/04/13 07:54:11;;;;;;;8.70;2.33;;;6.40;10.40;;;;;;6292755;22;20313;-92
2023/04/13 07:57:16;;;;;;;9.25;2.47;;;6.40;1.00;;;;;;6295100;22;20031;-93
2023/04/13 08:00:25;;;;;;;;;;;;;;;;;;;;;
2023/04/13 08:03:50;;;;;;;7.15;1.95;;;6.90;1.00;;;;;;6323393;22;20090;-93
2023/04/13 08:06:42;;;;;;;9.07;2.05;;;6.90;1.00;;;;;;6295817;22;20027;-92
2023/04/13 08:09:39;;;;;;;8.38;2.00;;;6.80;1.00;;;;;;6277615;22;20019;-91
2023/04/13 08:12:28;;;;;;;12.00;2.35;;;6.70;1.00;;;;;;6325830;22;20047;-91
2023/04/13 08:15:16;;;;;;;9.35;2.03;;;6.60;1.00;;;;;;6295243;22;20427;-88
2023/04/13 08:18:06;;;;;;;11.82;2.42;;;6.60;1.00;;;;;;6288926;22;20019;-93
2023/04/13 08:20:57;;;;;;;8.70;2.22;;;6.70;1.00;;;;;;6288601;22;20045;-88
2023/04/13 08:23:44;;;;;;;7.93;1.67;;;6.80;1.00;;;;;;6271644;22;20415;-92
2023/04/13 08:26:41;;;;;;;7.90;2.03;;;6.70;1.00;;;;;;6297204;22;20023;-94
2023/04/13 08:29:59;;;;;;;;;;;;;;;;;;;;;
2023/04/13 08:32:57;;;;;;;12.32;2.33;;;7.10;1.00;;;;;;6326222;22;20027;-91
2023/04/13 08:40:46;;;;;;;9.68;2.00;;;7.60;1.00;;;;;;6335804;22;20013;-88
2023/04/13 08:48:47;;;;;;;8.68;2.30;;;7.60;1.00;;;;;;6320343;22;20045;-93
2023/04/13 08:52:19;;;;;;;8.30;2.30;;;7.20;1.00;;;;;;6083722;23;20059;-91
2023/04/13 08:55:39;;;;;;;12.45;2.97;;;6.70;1.00;;;;;;6097532;23;20103;-93
2023/04/13 08:58:55;;;;;;;10.05;2.50;;;6.60;1.00;;;;;;6197519;23;20095;-93
2023/04/13 09:02:03;;;;;;;11.85;2.15;;;7.30;1.00;;;;;;6179817;23;20025;-93
2023/04/13 09:05:05;;;;;;;10.68;2.60;;;7.30;1.00;;;;;;6216909;22;20040;-92
2023/04/13 09:08:35;;;;;;;8.30;2.17;;;7.30;1.00;;;;;;6195747;23;20029;-90
2023/04/13 09:12:19;;;;;;;;;;;;;;;;;;;;;
2023/04/13 09:15:16;;;;;;;7.32;2.38;;;7.30;1.00;;;;;;6220606;23;20021;-91
2023/04/13 09:22:20;;;;;;;8.32;1.98;;;7.30;1.00;;;;;;6243711;22;20027;-92
2023/04/13 09:25:22;;;;;;;11.45;2.13;;;7.60;1.00;;;;;;6296000;22;20102;-94
2023/04/13 09:28:58;;;;;;;11.88;2.08;;;7.70;1.00;;;;;;6281811;22;20027;-93
2023/04/13 09:36:42;;;;;;;7.82;2.03;;;9.50;1.00;;;;;;6252069;23;20016;-93
2023/04/13 09:40:28;;;;;;;12.45;2.42;;;10.20;99.90;;;;;;6251976;23;20141;-93
2023/04/13 09:44:00;;;;;;;7.18;1.85;;;10.30;99.90;;;;;;6130271;23;20449;-91
2023/04/13 09:47:07;;;;;;;12.40;2.47;;;9.20;99.90;;;;;;6071548;23;20327;-92
2023/04/13 09:53:56;;;;;;;7.35;2.30;;;8.20;99.90;;;;;;6073362;23;19936;-94
2023/04/13 09:56:51;;;;;;;7.47;2.25;;;8.60;99.90;;;;;;6067780;23;20129;-92
2023/04/13 09:59:41;;;;;;;5.95;1.90;;;9.10;99.90;;;;;;6172007;23;20032;-87
2023/04/13 10:02:29;;;;;;;5.28;1.92;;;9.50;99.90;;;;;;6226119;23;20032;-89
2023/04/13 10:05:32;;;;;;;6.97;2.38;;;8.60;99.90;;;;;;6247303;22;20024;-90
2023/04/13 10:08:35;;;;;;;6.57;1.83;;;8.30;99.90;;;;;;6242331;22;20038;-90
2023/04/13 10:11:25;;;;;;;10.13;2.13;;;8.30;99.90;;;;;;6309819;22;20397;-92
2023/04/13 10:14:26;;;;;;;6.05;2.10;;;8.50;99.90;;;;;;6311014;22;20461;-93
2023/04/13 10:17:31;;;;;;;8.57;2.13;;;8.40;99.90;;;;;;6292934;22;20058;-91
2023/04/13 10:20:21;;;;;;;9.93;2.60;;;8.50;99.90;;;;;;6292867;22;20061;-89
2023/04/13 10:23:26;;;;;;;4.32;1.98;;;8.70;99.90;;;;;;6291620;22;20019;-90
2023/04/13 10:26:13;;;;;;;7.57;2.15;;;8.60;99.90;;;;;;6266490;22;20496;-90
2023/04/13 10:29:02;;;;;;;7.35;2.17;;;8.50;99.90;;;;;;6288038;22;20015;-91
2023/04/13 10:31:51;;;;;;;8.90;2.33;;;8.40;99.90;;;;;;6311185;22;20029;-89
2023/04/13 10:34:38;;;;;;;12.60;2.53;;;8.30;99.90;;;;;;6288320;22;20034;-89
2023/04/13 10:37:30;;;;;;;8.68;2.15;;;8.50;99.90;;;;;;6310938;22;20031;-88
2023/04/13 10:40:17;;;;;;;7.55;2.22;;;8.60;99.90;;;;;;6311187;22;20019;-86
2023/04/13 10:43:05;;;;;;;10.10;2.28;;;8.60;99.90;;;;;;6311273;22;20401;-90
2023/04/13 10:46:11;;;;;;;10.57;2.10;;;8.80;99.90;;;;;;6289002;22;20023;-89
2023/04/13 10:49:00;;;;;;;11.35;2.25;;;9.40;99.90;;;;;;6322850;22;20023;-89
2023/04/13 10:51:50;;;;;;;9.05;2.35;;;10.40;99.90;;;;;;6323624;22;20118;-88
2023/04/13 10:54:50;;;;;;;6.55;2.03;;;10.50;99.90;;;;;;6288466;22;20048;-91
2023/04/13 10:57:55;;;;;;;11.43;2.42;;;10.10;99.90;;;;;;6308944;22;20017;-93
2023/04/13 11:01:16;;;;;;;10.35;2.10;;;10.30;99.90;;;;;;6305939;22;20448;-90
2023/04/13 11:04:22;;;;;;;11.35;1.92;;;9.80;99.90;;;;;;6281362;22;20075;-91
2023/04/13 11:07:22;;;;;;;12.73;2.17;;;9.10;99.90;;;;;;6302293;22;20043;-91
2023/04/13 11:10:10;;;;;;;9.25;2.30;;;9.00;99.90;;;;;;6300122;22;20031;-90
2023/04/13 11:12:57;;;;;;;12.02;2.88;;;8.90;99.90;;;;;;6303041;22;20024;-90
2023/04/13 11:16:02;;;;;;;8.38;1.92;;;9.00;99.90;;;;;;6299757;22;20061;-91
2023/04/13 11:19:47;;;;;;;5.10;1.90;;;9.30;99.90;;;;;;6317738;22;20160;-92
2023/04/13 11:35:30;;;;;;;9.77;2.35;;;10.00;99.90;;;;;;6159435;23;20045;-91
2023/04/13 11:43:27;;;;;;;9.18;2.25;;;8.90;99.90;;;;;;6094699;23;20096;-93
2023/04/13 11:46:38;;;;;;;8.10;1.65;;;8.60;99.90;;;;;;6138124;23;20030;-91
2023/04/13 11:53:35;;;;;;;7.82;1.90;;;8.30;1.00;;;;;;6160670;23;20078;-90
2023/04/13 11:57:07;;;;;;;12.45;2.08;;;9.90;1.00;;;;;;6158290;23;20040;-91
2023/04/13 12:00:37;;;;;;;;;;;;;;;;;;;;;
2023/04/13 12:08:04;;;;;;;;;;;;;;;;;;;;;
2023/04/13 12:14:59;;;;;;;7.40;1.80;;;11.80;99.90;;;;;;6207178;23;20444;-92
2023/04/13 12:17:54;;;;;;;6.03;1.70;;;12.40;99.90;;;;;;6198342;23;20171;-91
2023/04/13 12:20:53;;;;;;;7.25;1.73;;;12.50;99.90;;;;;;6202753;23;20039;-92
2023/04/13 12:24:25;;;;;;;4.93;1.30;;;12.00;99.90;;;;;;6178572;23;20371;-92
2023/04/13 12:27:16;;;;;;;6.85;1.35;;;11.30;99.90;;;;;;6199724;23;20131;-90
2023/04/13 12:30:48;;;;;;;5.90;1.25;;;11.50;99.90;;;;;;6206701;23;20024;-93
2023/04/13 12:38:06;;;;;;;2.50;0.90;;;13.30;99.90;;;;;;6090800;23;20018;-91
2023/04/13 12:41:09;;;;;;;1.13;0.80;;;12.90;99.90;;;;;;6218505;23;20039;-89
2023/04/13 12:44:10;;;;;;;0.95;0.60;;;13.90;99.90;;;;;;6217642;23;20035;-91
2023/04/13 12:47:04;;;;;;;1.88;0.90;;;14.40;99.90;;;;;;6232666;23;20051;-91
2023/04/13 12:50:03;;;;;;;4.10;1.48;;;15.40;99.90;;;;;;6212851;22;20020;-93
2023/04/13 12:53:11;;;;;;;4.75;1.10;;;13.70;99.90;;;;;;6248183;22;20105;-92
2023/04/13 12:57:05;;;;;;;;;;;;;;;;;;;;;
2023/04/13 13:00:39;;;;;;;3.83;1.45;;;12.10;99.90;;;;;;6301997;22;20030;-92
2023/04/13 13:04:16;;;;;;;4.13;0.93;;;12.00;99.90;;;;;;6214621;23;20060;-91
2023/04/13 13:07:07;;;;;;;0.95;0.73;;;11.80;99.90;;;;;;6232266;23;20025;-92
2023/04/13 13:14:53;;;;;;;2.75;0.90;;;13.90;99.90;;;;;;6177308;23;20044;-92
2023/04/13 13:18:13;;;;;;;;;;;;;;;;;;;;;
2023/04/13 13:21:22;;;;;;;1.50;0.88;;;14.10;99.90;;;;;;6242445;22;20013;-89
2023/04/13 13:28:11;;;;;;;2.50;0.80;;;13.00;99.90;;;;;;6208719;23;20012;-91
2023/04/13 13:31:22;;;;;;;1.98;0.80;;;12.80;99.90;;;;;;6214702;23;20102;-90
2023/04/13 13:34:10;;;;;;;1.55;0.65;;;11.50;99.90;;;;;;6254374;22;20047;-91
2023/04/13 13:36:57;;;;;;;1.17;0.77;;;10.40;99.90;;;;;;6303430;22;20019;-91
2023/04/13 13:39:45;;;;;;;1.42;0.70;;;9.40;99.90;;;;;;6303614;22;20015;-90
2023/04/13 13:42:33;;;;;;;1.42;0.95;;;9.00;99.90;;;;;;6328132;22;20030;-86
2023/04/13 13:45:37;;;;;;;2.25;1.05;;;8.90;1.00;;;;;;6334797;22;20046;-84
2023/04/13 13:48:27;;;;;;;1.55;1.13;;;8.90;1.00;;;;;;6333477;22;20030;-87
2023/04/13 13:51:14;;;;;;;3.38;1.10;;;9.00;1.00;;;;;;6332093;22;20023;-91
2023/04/13 13:54:02;;;;;;;2.50;1.00;;;9.20;1.00;;;;;;6327693;22;20023;-91
2023/04/13 13:56:50;;;;;;;2.95;1.35;;;9.40;1.00;;;;;;6329474;22;20049;-91
2023/04/13 13:59:39;;;;;;;2.67;1.20;;;9.50;1.00;;;;;;6327764;22;20012;-91
2023/04/13 14:02:27;;;;;;;3.97;1.90;;;9.60;1.00;;;;;;6321830;22;20023;-93
2023/04/13 14:05:14;;;;;;;4.88;2.25;;;9.60;99.90;;;;;;6297420;22;20019;-91
2023/04/13 14:08:02;;;;;;;2.70;0.93;;;9.50;99.90;;;;;;6312364;22;20027;-92
2023/04/13 14:10:49;;;;;;;2.42;1.60;;;9.20;99.90;;;;;;6310061;22;20038;-92
2023/04/13 14:13:38;;;;;;;2.92;1.65;;;9.00;99.90;;;;;;6310956;22;20054;-89
2023/04/13 14:16:25;;;;;;;1.92;1.08;;;9.00;99.90;;;;;;6309662;22;20027;-90
2023/04/13 14:19:13;;;;;;;1.95;1.02;;;9.20;99.90;;;;;;6311701;22;20030;-90
2023/04/13 14:22:03;;;;;;;1.20;1.05;;;9.30;99.90;;;;;;6311005;22;20085;-91
2023/04/13 14:24:50;;;;;;;3.20;1.55;;;9.50;99.90;;;;;;6309672;22;20819;-87
2023/04/13 14:27:38;;;;;;;3.22;1.20;;;9.60;99.90;;;;;;6313038;22;20023;-89
2023/04/13 14:30:25;;;;;;;2.60;1.05;;;9.70;99.90;;;;;;6310229;22;20365;-90
2023/04/13 14:33:16;;;;;;;1.92;0.88;;;9.80;99.90;;;;;;6312294;22;20030;-90
2023/04/13 14:36:04;;;;;;;1.27;0.88;;;10.30;99.90;;;;;;6312366;22;20106;-88
2023/04/13 14:38:53;;;;;;;2.90;1.00;;;10.70;99.90;;;;;;6309800;22;20037;-89
2023/04/13 14:41:41;;;;;;;2.10;1.15;;;10.90;99.90;;;;;;6309768;22;20023;-90
2023/04/13 14:44:28;;;;;;;1.98;1.17;;;11.00;99.90;;;;;;6309839;22;20105;-88
2023/04/13 14:47:15;;;;;;;2.92;1.10;;;11.00;99.90;;;;;;6310866;22;20029;-89
2023/04/13 14:50:21;;;;;;;;;;;;;;;;;;;;;
2023/04/13 14:53:17;;;;;;;3.90;1.08;;;11.00;99.90;;;;;;6327575;22;20400;-89
2023/04/13 14:56:05;;;;;;;2.72;1.23;;;11.30;99.90;;;;;;6328615;22;20034;-89
2023/04/13 14:58:55;;;;;;;4.35;1.17;;;11.30;99.90;;;;;;6298284;22;20032;-83
2023/04/13 15:01:42;;;;;;;4.28;1.45;;;11.30;99.90;;;;;;6227925;22;20017;-83
2023/04/13 15:04:35;;;;;;;5.72;1.20;;;11.50;99.90;;;;;;6211737;23;20020;-86
2023/04/13 15:07:28;;;;;;;3.03;1.25;;;11.40;99.90;;;;;;6226184;22;20016;-86
2023/04/13 15:10:18;;;;;;;4.15;1.25;;;11.00;99.90;;;;;;6212466;23;20036;-85
2023/04/13 15:13:08;;;;;;;3.85;1.40;;;10.50;99.90;;;;;;6211345;23;20013;-87
2023/04/13 15:15:56;;;;;;;4.60;1.40;;;10.10;99.90;;;;;;6209932;23;20049;-88
2023/04/13 15:18:43;;;;;;;1.83;1.20;;;9.90;99.90;;;;;;6208401;23;20047;-87
2023/04/13 15:21:30;;;;;;;3.60;1.30;;;9.70;99.90;;;;;;6202209;23;20079;-90
2023/04/13 15:24:20;;;;;;;1.85;0.90;;;9.70;99.90;;;;;;6201461;23;20403;-91
2023/04/13 15:27:07;;;;;;;3.22;0.98;;;9.40;99.90;;;;;;6200272;23;20021;-88
2023/04/13 15:30:02;;;;;;;10.25;3.58;;;9.20;99.90;;;;;;6200645;23;20108;-90
2023/04/13 15:32:49;;;;;;;10.02;2.30;;;9.00;99.90;;;;;;6204852;23;20017;-89
2023/04/13 15:35:36;;;;;;;9.27;3.15;;;9.00;99.90;;;;;;6203332;23;20021;-90
2023/04/13 15:38:26;;;;;;;8.38;3.90;;;9.00;99.90;;;;;;6200717;23;20048;-91
2023/04/13 15:41:13;;;;;;;3.42;1.65;;;9.00;99.90;;;;;;6203007;23;20025;-88
2023/04/13 15:44:02;;;;;;;4.00;1.88;;;9.00;99.90;;;;;;6199258;23;20096;-90
2023/04/13 15:46:49;;;;;;;4.10;1.60;;;9.20;99.90;;;;;;6199588;23;20412;-90
2023/04/13 15:49:37;;;;;;;6.63;1.60;;;9.40;99.90;;;;;;6199921;23;20081;-88
2023/04/13 15:52:26;;;;;;;5.22;2.38;;;9.80;99.90;;;;;;6199733;23;20033;-92
2023/04/13 15:55:14;;;;;;;7.65;1.60;;;10.20;99.90;;;;;;6200446;23;20385;-90
2023/04/13 15:58:03;;;;;;;8.27;2.08;;;10.40;99.90;;;;;;6193235;23;20024;-91
2023/04/13 16:01:06;;;;;;;6.47;2.10;;;10.70;99.90;;;;;;6190161;23;20024;-92
2023/04/13 16:03:54;;;;;;;9.30;2.13;;;10.40;99.90;;;;;;6188963;23;20032;-90
2023/04/13 16:06:42;;;;;;;7.63;1.75;;;10.20;99.90;;;;;;6189517;23;20085;-90
2023/04/13 16:09:35;;;;;;;4.90;1.55;;;9.90;99.90;;;;;;6190144;23;20025;-91
2023/04/13 16:12:31;;;;;;;5.15;1.80;;;9.80;99.90;;;;;;6189041;23;20036;-91
2023/04/13 16:15:21;;;;;;;3.53;1.77;;;9.60;99.90;;;;;;6189393;23;20033;-89
2023/04/13 16:19:20;;;;;;;3.97;1.80;;;9.60;99.90;;;;;;6188978;23;20313;-91
2023/04/13 16:22:04;;;;;;;8.23;1.55;;;9.60;99.90;;;;;;6176311;23;20028;-92
2023/04/13 16:24:52;;;;;;;3.70;1.40;;;9.60;99.90;;;;;;6189474;23;20673;-91
2023/04/13 16:27:44;;;;;;;6.05;1.70;;;9.80;99.90;;;;;;6188711;23;20083;-90
2023/04/13 16:30:32;;;;;;;5.03;1.70;;;9.90;99.90;;;;;;6187222;23;20420;-91
2023/04/13 16:33:19;;;;;;;5.80;1.60;;;9.90;99.90;;;;;;6189820;23;20029;-90
2023/04/13 16:36:07;;;;;;;5.65;1.80;;;10.00;99.90;;;;;;6192739;23;20438;-91
2023/04/13 16:39:09;;;;;;;4.18;1.15;;;9.90;99.90;;;;;;6191455;23;20025;-91
2023/04/13 16:42:12;;;;;;;4.68;2.10;;;9.30;99.90;;;;;;6190407;23;20025;-93
2023/04/13 16:45:00;;;;;;;3.55;1.55;;;8.60;99.90;;;;;;6191373;23;20040;-90
2023/04/13 16:47:48;;;;;;;4.22;1.67;;;8.20;99.90;;;;;;6191031;23;20029;-92
2023/04/13 16:50:42;;;;;;;3.45;1.60;;;7.90;99.90;;;;;;6197837;23;20744;-91
2023/04/13 16:53:30;;;;;;;3.03;1.40;;;7.70;99.90;;;;;;6201853;23;20029;-89
2023/04/13 16:56:43;;;;;;;5.68;1.40;;;7.70;1.00;;;;;;6160401;23;20089;-91
2023/04/13 16:59:32;;;;;;;3.95;1.42;;;7.60;1.00;;;;;;6189375;23;20089;-90
2023/04/13 17:02:20;;;;;;;8.48;1.75;;;7.70;1.00;;;;;;6191665;23;20031;-90